sensor_id;sensor_type;location;lat;lon;timestamp;temperature;humidity
2260;DHT22;333;48.800;9.530;2023-05-07T00:00:48;13.10;99.60
2260;DHT22;333;48.800;9.530;2023-05-07T00:03:16;13.00;99.60
2260;DHT22;333;48.800;9.530;2023-05-07T00:05:45;13.00;99.60
2260;DHT22;333;48.800;9.530;2023-05-07T00:08:13;13.00;99.60
2260;DHT22;333;48.800;9.530;2023-05-07T00:10:41;13.10;99.60
2260;DHT22;333;48.800;9.530;2023-05-07T00:13:08;13.10;99.60
2260;DHT22;333;48.800;9.530;2023-05-07T00:15:35;13.00;99.60
2260;DHT22;333;48.800;9.530;2023-05-07T00:18:02;12.90;99.60
2260;DHT22;333;48.800;9.530;2023-05-07T00:20:29;12.80;99.60
2260;DHT22;333;48.800;9.530;2023-05-07T00:22:57;12.80;99.60
2260;DHT22;333;48.800;9.530;2023-05-07T00:25:24;12.70;99.60
2260;DHT22;333;48.800;9.530;2023-05-07T00:27:51;12.70;99.60
2260;DHT22;333;48.800;9.530;2023-05-07T00:30:18;12.80;99.60
2260;DHT22;333;48.800;9.530;2023-05-07T00:32:45;12.90;99.60
2260;DHT22;333;48.800;9.530;2023-05-07T00:35:14;12.70;99.60
2260;DHT22;333;48.800;9.530;2023-05-07T00:37:41;12.80;99.60
2260;DHT22;333;48.800;9.530;2023-05-07T00:40:10;12.70;99.60
2260;DHT22;333;48.800;9.530;2023-05-07T00:42:37;12.60;99.60
2260;DHT22;333;48.800;9.530;2023-05-07T00:45:05;12.70;99.60
2260;DHT22;333;48.800;9.530;2023-05-07T00:47:33;12.70;99.60
2260;DHT22;333;48.800;9.530;2023-05-07T00:50:00;12.60;99.60
2260;DHT22;333;48.800;9.530;2023-05-07T00:52:28;12.50;99.60
2260;DHT22;333;48.800;9.530;2023-05-07T00:54:55;12.60;99.60
2260;DHT22;333;48.800;9.530;2023-05-07T00:57:24;12.60;99.60
2260;DHT22;333;48.800;9.530;2023-05-07T00:59:52;12.60;99.60
2260;DHT22;333;48.800;9.530;2023-05-07T01:02:19;12.50;99.60
2260;DHT22;333;48.800;9.530;2023-05-07T01:04:46;12.40;99.60
2260;DHT22;333;48.800;9.530;2023-05-07T01:07:13;12.40;99.60
2260;DHT22;333;48.800;9.530;2023-05-07T01:09:40;12.40;99.60
2260;DHT22;333;48.800;9.530;2023-05-07T01:12:07;12.30;99.60
2260;DHT22;333;48.800;9.530;2023-05-07T01:14:36;12.20;99.60
2260;DHT22;333;48.800;9.530;2023-05-07T01:17:03;12.20;99.60
2260;DHT22;333;48.800;9.530;2023-05-07T01:19:30;12.30;99.60
2260;DHT22;333;48.800;9.530;2023-05-07T01:22:03;12.20;99.60
2260;DHT22;333;48.800;9.530;2023-05-07T01:24:32;12.10;99.60
2260;DHT22;333;48.800;9.530;2023-05-07T01:27:00;12.30;99.60
2260;DHT22;333;48.800;9.530;2023-05-07T01:29:28;12.40;99.60
2260;DHT22;333;48.800;9.530;2023-05-07T01:31:57;12.50;99.60
2260;DHT22;333;48.800;9.530;2023-05-07T01:34:25;12.30;99.60
2260;DHT22;333;48.800;9.530;2023-05-07T01:36:54;12.30;99.60
2260;DHT22;333;48.800;9.530;2023-05-07T01:39:24;12.40;99.60
2260;DHT22;333;48.800;9.530;2023-05-07T01:41:55;12.30;99.60
2260;DHT22;333;48.800;9.530;2023-05-07T01:44:22;12.10;99.60
2260;DHT22;333;48.800;9.530;2023-05-07T01:46:50;12.10;99.60
2260;DHT22;333;48.800;9.530;2023-05-07T01:49:17;12.10;99.60
2260;DHT22;333;48.800;9.530;2023-05-07T01:51:44;12.00;99.60
2260;DHT22;333;48.800;9.530;2023-05-07T01:54:11;11.90;99.60
2260;DHT22;333;48.800;9.530;2023-05-07T01:56:38;11.90;99.60
2260;DHT22;333;48.800;9.530;2023-05-07T01:59:07;11.90;99.60
2260;DHT22;333;48.800;9.530;2023-05-07T02:01:34;11.90;99.60
2260;DHT22;333;48.800;9.530;2023-05-07T02:04:01;11.90;99.60
2260;DHT22;333;48.800;9.530;2023-05-07T02:06:27;11.90;99.60
2260;DHT22;333;48.800;9.530;2023-05-07T02:08:54;11.80;99.60
2260;DHT22;333;48.800;9.530;2023-05-07T02:11:21;11.80;99.60
2260;DHT22;333;48.800;9.530;2023-05-07T02:13:48;11.80;99.60
2260;DHT22;333;48.800;9.530;2023-05-07T02:16:17;11.70;99.60
2260;DHT22;333;48.800;9.530;2023-05-07T02:18:44;11.70;99.60
2260;DHT22;333;48.800;9.530;2023-05-07T02:21:11;11.70;99.60
2260;DHT22;333;48.800;9.530;2023-05-07T02:23:38;11.70;99.60
2260;DHT22;333;48.800;9.530;2023-05-07T02:26:05;11.70;99.60
2260;DHT22;333;48.800;9.530;2023-05-07T02:28:32;11.70;99.60
2260;DHT22;333;48.800;9.530;2023-05-07T02:31:02;11.60;99.60
2260;DHT22;333;48.800;9.530;2023-05-07T02:33:30;11.60;99.60
2260;DHT22;333;48.800;9.530;2023-05-07T02:36:05;11.50;99.60
2260;DHT22;333;48.800;9.530;2023-05-07T02:38:32;11.50;99.60
2260;DHT22;333;48.800;9.530;2023-05-07T02:40:59;11.50;99.60
2260;DHT22;333;48.800;9.530;2023-05-07T02:43:26;11.50;99.60
2260;DHT22;333;48.800;9.530;2023-05-07T02:46:00;11.50;99.60
2260;DHT22;333;48.800;9.530;2023-05-07T02:48:28;11.40;99.60
2260;DHT22;333;48.800;9.530;2023-05-07T02:50:56;11.40;99.60
2260;DHT22;333;48.800;9.530;2023-05-07T02:53:23;11.40;99.60
2260;DHT22;333;48.800;9.530;2023-05-07T02:55:52;11.30;99.60
2260;DHT22;333;48.800;9.530;2023-05-07T02:58:19;11.20;99.60
2260;DHT22;333;48.800;9.530;2023-05-07T03:00:46;11.10;99.60
2260;DHT22;333;48.800;9.530;2023-05-07T03:03:13;11.00;99.60
2260;DHT22;333;48.800;9.530;2023-05-07T03:05:40;11.00;99.60
2260;DHT22;333;48.800;9.530;2023-05-07T03:08:09;11.00;99.60
2260;DHT22;333;48.800;9.530;2023-05-07T03:10:36;11.00;99.60
2260;DHT22;333;48.800;9.530;2023-05-07T03:13:04;11.10;99.60
2260;DHT22;333;48.800;9.530;2023-05-07T03:15:31;11.00;99.60
2260;DHT22;333;48.800;9.530;2023-05-07T03:17:58;10.90;99.60
2260;DHT22;333;48.800;9.530;2023-05-07T03:20:25;11.00;99.60
2260;DHT22;333;48.800;9.530;2023-05-07T03:22:52;10.90;99.60
2260;DHT22;333;48.800;9.530;2023-05-07T03:25:20;10.80;99.60
2260;DHT22;333;48.800;9.530;2023-05-07T03:27:48;10.80;99.60
2260;DHT22;333;48.800;9.530;2023-05-07T03:30:15;10.80;99.60
2260;DHT22;333;48.800;9.530;2023-05-07T03:32:41;10.80;99.60
2260;DHT22;333;48.800;9.530;2023-05-07T03:35:08;10.80;99.60
2260;DHT22;333;48.800;9.530;2023-05-07T03:37:35;10.70;99.60
2260;DHT22;333;48.800;9.530;2023-05-07T03:40:03;10.80;99.60
2260;DHT22;333;48.800;9.530;2023-05-07T03:42:32;10.80;99.60
2260;DHT22;333;48.800;9.530;2023-05-07T03:44:59;10.70;99.60
2260;DHT22;333;48.800;9.530;2023-05-07T03:47:26;10.60;99.60
2260;DHT22;333;48.800;9.530;2023-05-07T03:49:53;10.60;99.60
2260;DHT22;333;48.800;9.530;2023-05-07T03:52:20;10.60;99.60
2260;DHT22;333;48.800;9.530;2023-05-07T03:54:51;10.60;99.60
2260;DHT22;333;48.800;9.530;2023-05-07T03:57:18;10.70;99.60
2260;DHT22;333;48.800;9.530;2023-05-07T03:59:47;10.70;99.60
2260;DHT22;333;48.800;9.530;2023-05-07T04:02:13;10.60;99.60
2260;DHT22;333;48.800;9.530;2023-05-07T04:04:40;10.70;99.60
2260;DHT22;333;48.800;9.530;2023-05-07T04:07:07;10.60;99.60
2260;DHT22;333;48.800;9.530;2023-05-07T04:09:35;10.60;99.60
2260;DHT22;333;48.800;9.530;2023-05-07T04:12:02;10.50;99.60
2260;DHT22;333;48.800;9.530;2023-05-07T04:14:29;10.50;99.60
2260;DHT22;333;48.800;9.530;2023-05-07T04:16:59;10.50;99.60
2260;DHT22;333;48.800;9.530;2023-05-07T04:19:26;10.50;99.60
2260;DHT22;333;48.800;9.530;2023-05-07T04:21:53;10.50;99.60
2260;DHT22;333;48.800;9.530;2023-05-07T04:24:20;10.50;99.60
2260;DHT22;333;48.800;9.530;2023-05-07T04:26:47;10.50;99.60
2260;DHT22;333;48.800;9.530;2023-05-07T04:29:14;10.60;99.60
2260;DHT22;333;48.800;9.530;2023-05-07T04:31:41;10.70;99.60
2260;DHT22;333;48.800;9.530;2023-05-07T04:34:11;10.70;99.60
2260;DHT22;333;48.800;9.530;2023-05-07T04:36:38;10.70;99.60
2260;DHT22;333;48.800;9.530;2023-05-07T04:39:05;10.70;99.60
2260;DHT22;333;48.800;9.530;2023-05-07T04:41:32;10.70;99.60
2260;DHT22;333;48.800;9.530;2023-05-07T04:43:59;10.80;99.60
2260;DHT22;333;48.800;9.530;2023-05-07T04:46:26;10.90;99.60
2260;DHT22;333;48.800;9.530;2023-05-07T04:48:53;11.10;99.60
2260;DHT22;333;48.800;9.530;2023-05-07T04:51:21;11.10;99.60
2260;DHT22;333;48.800;9.530;2023-05-07T04:53:48;11.20;99.60
2260;DHT22;333;48.800;9.530;2023-05-07T04:56:16;11.30;99.60
2260;DHT22;333;48.800;9.530;2023-05-07T04:58:43;11.40;99.60
2260;DHT22;333;48.800;9.530;2023-05-07T05:01:09;11.50;99.60
2260;DHT22;333;48.800;9.530;2023-05-07T05:03:36;11.60;99.60
2260;DHT22;333;48.800;9.530;2023-05-07T05:06:05;11.70;99.60
2260;DHT22;333;48.800;9.530;2023-05-07T05:08:33;11.90;99.60
2260;DHT22;333;48.800;9.530;2023-05-07T05:11:00;11.80;99.60
2260;DHT22;333;48.800;9.530;2023-05-07T05:13:27;11.80;99.60
2260;DHT22;333;48.800;9.530;2023-05-07T05:15:55;11.80;99.60
2260;DHT22;333;48.800;9.530;2023-05-07T05:18:22;12.00;99.60
2260;DHT22;333;48.800;9.530;2023-05-07T05:20:51;12.00;99.60
2260;DHT22;333;48.800;9.530;2023-05-07T05:23:18;12.00;99.60
2260;DHT22;333;48.800;9.530;2023-05-07T05:25:46;12.10;99.60
2260;DHT22;333;48.800;9.530;2023-05-07T05:28:13;12.20;99.60
2260;DHT22;333;48.800;9.530;2023-05-07T05:30:40;12.30;99.60
2260;DHT22;333;48.800;9.530;2023-05-07T05:33:07;12.20;99.60
2260;DHT22;333;48.800;9.530;2023-05-07T05:35:34;12.10;99.60
2260;DHT22;333;48.800;9.530;2023-05-07T05:38:01;12.00;99.60
2260;DHT22;333;48.800;9.530;2023-05-07T05:40:28;12.10;99.60
2260;DHT22;333;48.800;9.530;2023-05-07T05:42:57;12.20;99.60
2260;DHT22;333;48.800;9.530;2023-05-07T05:45:24;12.40;99.60
2260;DHT22;333;48.800;9.530;2023-05-07T05:47:51;12.60;99.60
2260;DHT22;333;48.800;9.530;2023-05-07T05:50:18;12.70;99.60
2260;DHT22;333;48.800;9.530;2023-05-07T05:52:45;12.80;99.60
2260;DHT22;333;48.800;9.530;2023-05-07T05:55:12;13.00;99.60
2260;DHT22;333;48.800;9.530;2023-05-07T05:57:39;13.10;99.60
2260;DHT22;333;48.800;9.530;2023-05-07T06:00:09;13.20;99.60
2260;DHT22;333;48.800;9.530;2023-05-07T06:02:36;13.30;99.60
2260;DHT22;333;48.800;9.530;2023-05-07T06:05:04;13.40;99.60
2260;DHT22;333;48.800;9.530;2023-05-07T06:07:31;13.40;99.60
2260;DHT22;333;48.800;9.530;2023-05-07T06:09:58;13.50;99.60
2260;DHT22;333;48.800;9.530;2023-05-07T06:12:25;13.40;99.60
2260;DHT22;333;48.800;9.530;2023-05-07T06:14:52;13.50;99.60
2260;DHT22;333;48.800;9.530;2023-05-07T06:17:21;13.70;99.60
2260;DHT22;333;48.800;9.530;2023-05-07T06:19:48;13.80;99.60
2260;DHT22;333;48.800;9.530;2023-05-07T06:22:15;14.00;99.60
2260;DHT22;333;48.800;9.530;2023-05-07T06:24:42;14.00;99.60
2260;DHT22;333;48.800;9.530;2023-05-07T06:27:08;14.20;99.60
2260;DHT22;333;48.800;9.530;2023-05-07T06:29:36;14.50;99.60
2260;DHT22;333;48.800;9.530;2023-05-07T06:32:06;14.80;99.60
2260;DHT22;333;48.800;9.530;2023-05-07T06:34:35;15.10;99.60
2260;DHT22;333;48.800;9.530;2023-05-07T06:37:02;15.20;99.60
2260;DHT22;333;48.800;9.530;2023-05-07T06:39:29;15.40;99.60
2260;DHT22;333;48.800;9.530;2023-05-07T06:41:56;15.60;99.60
2260;DHT22;333;48.800;9.530;2023-05-07T06:44:23;15.70;99.60
2260;DHT22;333;48.800;9.530;2023-05-07T06:46:50;15.80;99.60
2260;DHT22;333;48.800;9.530;2023-05-07T06:49:17;16.00;99.60
2260;DHT22;333;48.800;9.530;2023-05-07T06:51:45;16.20;99.60
2260;DHT22;333;48.800;9.530;2023-05-07T06:54:12;16.20;99.60
2260;DHT22;333;48.800;9.530;2023-05-07T06:56:39;16.30;99.60
2260;DHT22;333;48.800;9.530;2023-05-07T06:59:06;16.40;99.60
2260;DHT22;333;48.800;9.530;2023-05-07T07:01:33;16.70;99.60
2260;DHT22;333;48.800;9.530;2023-05-07T07:04:00;17.00;99.60
2260;DHT22;333;48.800;9.530;2023-05-07T07:06:27;17.20;99.60
2260;DHT22;333;48.800;9.530;2023-05-07T07:08:55;17.40;99.60
2260;DHT22;333;48.800;9.530;2023-05-07T07:11:22;17.70;99.60
2260;DHT22;333;48.800;9.530;2023-05-07T07:13:49;17.80;99.60
2260;DHT22;333;48.800;9.530;2023-05-07T07:16:16;18.10;99.60
2260;DHT22;333;48.800;9.530;2023-05-07T07:18:43;18.30;99.60
2260;DHT22;333;48.800;9.530;2023-05-07T07:21:10;18.40;99.60
2260;DHT22;333;48.800;9.530;2023-05-07T07:23:37;18.40;99.60
2260;DHT22;333;48.800;9.530;2023-05-07T07:26:05;18.50;99.60
2260;DHT22;333;48.800;9.530;2023-05-07T07:28:32;18.90;99.60
2260;DHT22;333;48.800;9.530;2023-05-07T07:30:59;19.10;99.60
2260;DHT22;333;48.800;9.530;2023-05-07T07:33:26;19.40;99.60
2260;DHT22;333;48.800;9.530;2023-05-07T07:35:55;19.50;99.60
2260;DHT22;333;48.800;9.530;2023-05-07T07:38:22;19.60;99.60
2260;DHT22;333;48.800;9.530;2023-05-07T07:40:49;19.50;99.60
2260;DHT22;333;48.800;9.530;2023-05-07T07:43:17;19.60;99.60
2260;DHT22;333;48.800;9.530;2023-05-07T07:45:44;19.80;99.60
2260;DHT22;333;48.800;9.530;2023-05-07T07:48:11;20.00;99.60
2260;DHT22;333;48.800;9.530;2023-05-07T07:50:38;20.20;99.60
2260;DHT22;333;48.800;9.530;2023-05-07T07:53:05;20.30;99.60
2260;DHT22;333;48.800;9.530;2023-05-07T07:55:32;20.50;99.60
2260;DHT22;333;48.800;9.530;2023-05-07T07:57:59;20.50;99.60
2260;DHT22;333;48.800;9.530;2023-05-07T08:00:27;20.60;99.60
2260;DHT22;333;48.800;9.530;2023-05-07T08:02:54;20.80;99.60
2260;DHT22;333;48.800;9.530;2023-05-07T08:05:21;21.10;99.60
2260;DHT22;333;48.800;9.530;2023-05-07T08:07:48;21.30;99.60
2260;DHT22;333;48.800;9.530;2023-05-07T08:10:17;21.50;99.60
2260;DHT22;333;48.800;9.530;2023-05-07T08:12:46;21.70;99.60
2260;DHT22;333;48.800;9.530;2023-05-07T08:15:14;22.10;99.60
2260;DHT22;333;48.800;9.530;2023-05-07T08:17:43;22.30;99.60
2260;DHT22;333;48.800;9.530;2023-05-07T08:20:10;22.60;99.60
2260;DHT22;333;48.800;9.530;2023-05-07T08:22:37;22.40;98.20
2260;DHT22;333;48.800;9.530;2023-05-07T08:25:04;22.60;98.20
2260;DHT22;333;48.800;9.530;2023-05-07T08:27:31;22.80;99.10
2260;DHT22;333;48.800;9.530;2023-05-07T08:29:58;22.90;98.80
2260;DHT22;333;48.800;9.530;2023-05-07T08:32:25;23.10;96.70
2260;DHT22;333;48.800;9.530;2023-05-07T08:34:54;23.30;96.20
2260;DHT22;333;48.800;9.530;2023-05-07T08:37:21;23.60;94.00
2260;DHT22;333;48.800;9.530;2023-05-07T08:39:48;23.70;94.40
2260;DHT22;333;48.800;9.530;2023-05-07T08:42:17;23.80;95.60
2260;DHT22;333;48.800;9.530;2023-05-07T08:44:45;23.90;94.30
2260;DHT22;333;48.800;9.530;2023-05-07T08:47:13;24.10;92.20
2260;DHT22;333;48.800;9.530;2023-05-07T08:49:40;23.50;91.40
2260;DHT22;333;48.800;9.530;2023-05-07T08:52:09;23.50;93.00
2260;DHT22;333;48.800;9.530;2023-05-07T08:54:37;23.80;94.30
2260;DHT22;333;48.800;9.530;2023-05-07T08:57:04;24.10;91.90
2260;DHT22;333;48.800;9.530;2023-05-07T08:59:31;24.10;91.00
2260;DHT22;333;48.800;9.530;2023-05-07T09:01:58;24.20;90.00
2260;DHT22;333;48.800;9.530;2023-05-07T09:04:25;24.30;91.60
2260;DHT22;333;48.800;9.530;2023-05-07T09:06:51;24.30;90.00
2260;DHT22;333;48.800;9.530;2023-05-07T09:09:22;24.10;91.10
2260;DHT22;333;48.800;9.530;2023-05-07T09:11:51;24.20;90.80
2260;DHT22;333;48.800;9.530;2023-05-07T09:14:24;24.10;91.50
2260;DHT22;333;48.800;9.530;2023-05-07T09:16:52;24.10;91.00
2260;DHT22;333;48.800;9.530;2023-05-07T09:19:22;23.90;91.50
2260;DHT22;333;48.800;9.530;2023-05-07T09:21:49;24.00;91.90
2260;DHT22;333;48.800;9.530;2023-05-07T09:24:16;24.20;90.40
2260;DHT22;333;48.800;9.530;2023-05-07T09:26:45;24.50;88.30
2260;DHT22;333;48.800;9.530;2023-05-07T09:29:12;24.60;88.20
2260;DHT22;333;48.800;9.530;2023-05-07T09:31:39;24.90;86.70
2260;DHT22;333;48.800;9.530;2023-05-07T09:34:06;24.90;86.20
2260;DHT22;333;48.800;9.530;2023-05-07T09:36:33;25.00;84.10
2260;DHT22;333;48.800;9.530;2023-05-07T09:39:00;24.90;85.50
2260;DHT22;333;48.800;9.530;2023-05-07T09:41:30;25.10;85.30
2260;DHT22;333;48.800;9.530;2023-05-07T09:43:59;25.50;87.80
2260;DHT22;333;48.800;9.530;2023-05-07T09:46:30;25.70;84.10
2260;DHT22;333;48.800;9.530;2023-05-07T09:48:58;25.70;84.20
2260;DHT22;333;48.800;9.530;2023-05-07T09:51:30;25.80;85.30
2260;DHT22;333;48.800;9.530;2023-05-07T09:54:02;25.90;85.40
2260;DHT22;333;48.800;9.530;2023-05-07T09:56:30;26.00;83.10
2260;DHT22;333;48.800;9.530;2023-05-07T09:59:00;25.60;81.90
2260;DHT22;333;48.800;9.530;2023-05-07T10:01:29;25.70;83.80
2260;DHT22;333;48.800;9.530;2023-05-07T10:03:57;25.90;83.10
2260;DHT22;333;48.800;9.530;2023-05-07T10:06:25;25.90;82.70
2260;DHT22;333;48.800;9.530;2023-05-07T10:08:53;26.00;82.70
2260;DHT22;333;48.800;9.530;2023-05-07T10:11:22;26.10;82.20
2260;DHT22;333;48.800;9.530;2023-05-07T10:13:49;26.40;83.70
2260;DHT22;333;48.800;9.530;2023-05-07T10:16:18;26.50;81.30
2260;DHT22;333;48.800;9.530;2023-05-07T10:18:46;26.50;82.80
2260;DHT22;333;48.800;9.530;2023-05-07T10:21:16;26.80;84.20
2260;DHT22;333;48.800;9.530;2023-05-07T10:23:45;27.00;79.70
2260;DHT22;333;48.800;9.530;2023-05-07T10:26:13;26.30;81.50
2260;DHT22;333;48.800;9.530;2023-05-07T10:28:56;25.80;82.30
2260;DHT22;333;48.800;9.530;2023-05-07T10:31:51;25.60;83.70
2260;DHT22;333;48.800;9.530;2023-05-07T10:34:25;25.30;82.40
2260;DHT22;333;48.800;9.530;2023-05-07T10:36:53;26.00;84.30
2260;DHT22;333;48.800;9.530;2023-05-07T10:39:21;26.70;82.70
2260;DHT22;333;48.800;9.530;2023-05-07T10:41:51;26.70;80.40
2260;DHT22;333;48.800;9.530;2023-05-07T10:44:27;26.60;80.60
2260;DHT22;333;48.800;9.530;2023-05-07T10:47:06;26.30;82.60
2260;DHT22;333;48.800;9.530;2023-05-07T10:49:35;25.90;80.80
2260;DHT22;333;48.800;9.530;2023-05-07T10:52:15;25.20;83.20
2260;DHT22;333;48.800;9.530;2023-05-07T10:54:43;25.50;83.30
2260;DHT22;333;48.800;9.530;2023-05-07T10:57:34;26.00;82.80
2260;DHT22;333;48.800;9.530;2023-05-07T11:00:42;25.90;84.50
2260;DHT22;333;48.800;9.530;2023-05-07T11:03:14;26.10;82.90
2260;DHT22;333;48.800;9.530;2023-05-07T11:05:42;25.90;83.70
2260;DHT22;333;48.800;9.530;2023-05-07T11:08:09;26.10;82.70
2260;DHT22;333;48.800;9.530;2023-05-07T11:10:50;25.80;81.80
2260;DHT22;333;48.800;9.530;2023-05-07T11:13:18;26.30;81.90
2260;DHT22;333;48.800;9.530;2023-05-07T11:15:46;26.90;78.60
2260;DHT22;333;48.800;9.530;2023-05-07T11:18:15;26.80;79.00
2260;DHT22;333;48.800;9.530;2023-05-07T11:20:50;27.10;78.70
2260;DHT22;333;48.800;9.530;2023-05-07T11:26:18;27.80;78.50
2260;DHT22;333;48.800;9.530;2023-05-07T11:28:45;27.10;78.20
2260;DHT22;333;48.800;9.530;2023-05-07T11:31:12;26.90;78.30
2260;DHT22;333;48.800;9.530;2023-05-07T11:33:41;27.30;78.20
2260;DHT22;333;48.800;9.530;2023-05-07T11:36:10;27.90;78.50
2260;DHT22;333;48.800;9.530;2023-05-07T11:38:37;28.10;75.00
2260;DHT22;333;48.800;9.530;2023-05-07T11:41:05;28.10;77.10
2260;DHT22;333;48.800;9.530;2023-05-07T11:43:32;28.20;74.80
2260;DHT22;333;48.800;9.530;2023-05-07T11:46:09;27.40;75.80
2260;DHT22;333;48.800;9.530;2023-05-07T11:48:36;27.30;74.90
2260;DHT22;333;48.800;9.530;2023-05-07T11:51:06;27.40;76.30
2260;DHT22;333;48.800;9.530;2023-05-07T11:53:38;27.80;74.10
2260;DHT22;333;48.800;9.530;2023-05-07T11:56:09;27.60;72.20
2260;DHT22;333;48.800;9.530;2023-05-07T11:58:37;27.80;74.70
2260;DHT22;333;48.800;9.530;2023-05-07T12:01:04;28.00;75.00
2260;DHT22;333;48.800;9.530;2023-05-07T12:03:31;28.10;72.80
2260;DHT22;333;48.800;9.530;2023-05-07T12:05:59;28.30;73.70
2260;DHT22;333;48.800;9.530;2023-05-07T12:08:28;27.90;73.00
2260;DHT22;333;48.800;9.530;2023-05-07T12:10:55;27.60;75.70
2260;DHT22;333;48.800;9.530;2023-05-07T12:13:23;27.30;75.20
2260;DHT22;333;48.800;9.530;2023-05-07T12:15:51;27.20;76.80
2260;DHT22;333;48.800;9.530;2023-05-07T12:18:18;27.60;76.60
2260;DHT22;333;48.800;9.530;2023-05-07T12:20:45;27.60;76.40
2260;DHT22;333;48.800;9.530;2023-05-07T12:23:13;27.30;76.90
2260;DHT22;333;48.800;9.530;2023-05-07T12:25:42;27.10;76.40
2260;DHT22;333;48.800;9.530;2023-05-07T12:28:13;26.80;75.80
2260;DHT22;333;48.800;9.530;2023-05-07T12:30:41;26.40;77.80
2260;DHT22;333;48.800;9.530;2023-05-07T12:33:09;26.20;77.40
2260;DHT22;333;48.800;9.530;2023-05-07T12:35:37;26.10;78.70
2260;DHT22;333;48.800;9.530;2023-05-07T12:38:08;25.90;78.30
2260;DHT22;333;48.800;9.530;2023-05-07T12:40:39;26.00;77.00
2260;DHT22;333;48.800;9.530;2023-05-07T12:43:07;25.90;77.40
2260;DHT22;333;48.800;9.530;2023-05-07T12:45:37;25.70;76.70
2260;DHT22;333;48.800;9.530;2023-05-07T12:48:04;25.80;77.30
2260;DHT22;333;48.800;9.530;2023-05-07T12:50:32;25.70;77.10
2260;DHT22;333;48.800;9.530;2023-05-07T12:52:59;25.60;78.20
2260;DHT22;333;48.800;9.530;2023-05-07T12:55:29;25.50;77.70
2260;DHT22;333;48.800;9.530;2023-05-07T12:58:00;25.20;78.30
2260;DHT22;333;48.800;9.530;2023-05-07T13:00:36;25.10;80.10
2260;DHT22;333;48.800;9.530;2023-05-07T13:03:03;24.90;80.30
2260;DHT22;333;48.800;9.530;2023-05-07T13:05:31;24.70;80.70
2260;DHT22;333;48.800;9.530;2023-05-07T13:07:58;24.60;80.50
2260;DHT22;333;48.800;9.530;2023-05-07T13:10:26;24.50;81.60
2260;DHT22;333;48.800;9.530;2023-05-07T13:12:53;24.30;81.20
2260;DHT22;333;48.800;9.530;2023-05-07T13:15:21;24.20;83.00
2260;DHT22;333;48.800;9.530;2023-05-07T13:17:50;23.80;84.90
2260;DHT22;333;48.800;9.530;2023-05-07T13:20:17;23.50;86.40
2260;DHT22;333;48.800;9.530;2023-05-07T13:22:44;23.30;87.80
2260;DHT22;333;48.800;9.530;2023-05-07T13:25:11;23.20;87.90
2260;DHT22;333;48.800;9.530;2023-05-07T13:27:38;23.00;88.30
2260;DHT22;333;48.800;9.530;2023-05-07T13:30:06;22.80;89.30
2260;DHT22;333;48.800;9.530;2023-05-07T13:32:33;22.60;90.70
2260;DHT22;333;48.800;9.530;2023-05-07T13:35:02;22.50;91.70
2260;DHT22;333;48.800;9.530;2023-05-07T13:37:29;22.30;93.30
2260;DHT22;333;48.800;9.530;2023-05-07T13:39:56;22.10;93.70
2260;DHT22;333;48.800;9.530;2023-05-07T13:42:22;22.10;94.20
2260;DHT22;333;48.800;9.530;2023-05-07T13:44:49;21.90;94.50
2260;DHT22;333;48.800;9.530;2023-05-07T13:47:16;21.50;97.90
2260;DHT22;333;48.800;9.530;2023-05-07T13:49:43;21.10;99.60
2260;DHT22;333;48.800;9.530;2023-05-07T13:52:11;20.90;99.60
2260;DHT22;333;48.800;9.530;2023-05-07T13:54:38;20.60;99.60
2260;DHT22;333;48.800;9.530;2023-05-07T13:57:05;20.40;99.60
2260;DHT22;333;48.800;9.530;2023-05-07T13:59:33;20.20;99.60
2260;DHT22;333;48.800;9.530;2023-05-07T14:02:00;20.20;99.60
2260;DHT22;333;48.800;9.530;2023-05-07T14:04:27;20.10;99.60
2260;DHT22;333;48.800;9.530;2023-05-07T14:06:53;20.20;99.60
2260;DHT22;333;48.800;9.530;2023-05-07T14:09:22;20.10;99.60
2260;DHT22;333;48.800;9.530;2023-05-07T14:11:49;20.20;99.60
2260;DHT22;333;48.800;9.530;2023-05-07T14:14:17;20.20;99.60
2260;DHT22;333;48.800;9.530;2023-05-07T14:16:44;20.30;99.60
2260;DHT22;333;48.800;9.530;2023-05-07T14:19:11;20.30;99.60
2260;DHT22;333;48.800;9.530;2023-05-07T14:21:38;20.30;99.60
2260;DHT22;333;48.800;9.530;2023-05-07T14:24:06;20.10;99.60
2260;DHT22;333;48.800;9.530;2023-05-07T14:26:34;20.00;99.60
2260;DHT22;333;48.800;9.530;2023-05-07T14:29:01;20.10;99.60
2260;DHT22;333;48.800;9.530;2023-05-07T14:31:29;20.20;99.60
2260;DHT22;333;48.800;9.530;2023-05-07T14:33:55;20.20;99.60
2260;DHT22;333;48.800;9.530;2023-05-07T14:36:23;20.10;99.60
2260;DHT22;333;48.800;9.530;2023-05-07T14:38:51;19.90;99.60
2260;DHT22;333;48.800;9.530;2023-05-07T14:41:19;19.60;99.60
2260;DHT22;333;48.800;9.530;2023-05-07T14:43:47;19.20;99.60
2260;DHT22;333;48.800;9.530;2023-05-07T14:46:16;18.90;99.60
2260;DHT22;333;48.800;9.530;2023-05-07T14:48:44;18.70;99.60
2260;DHT22;333;48.800;9.530;2023-05-07T14:51:11;18.60;99.60
2260;DHT22;333;48.800;9.530;2023-05-07T14:53:40;18.50;99.60
2260;DHT22;333;48.800;9.530;2023-05-07T14:56:07;18.40;99.60
2260;DHT22;333;48.800;9.530;2023-05-07T14:58:34;18.40;99.60
2260;DHT22;333;48.800;9.530;2023-05-07T15:01:03;18.30;99.60
2260;DHT22;333;48.800;9.530;2023-05-07T15:03:30;18.30;99.60
2260;DHT22;333;48.800;9.530;2023-05-07T15:05:57;18.40;99.60
2260;DHT22;333;48.800;9.530;2023-05-07T15:08:24;18.40;99.60
2260;DHT22;333;48.800;9.530;2023-05-07T15:10:51;18.40;99.60
2260;DHT22;333;48.800;9.530;2023-05-07T15:13:18;18.50;99.60
2260;DHT22;333;48.800;9.530;2023-05-07T15:15:45;18.50;99.60
2260;DHT22;333;48.800;9.530;2023-05-07T15:18:14;18.50;99.60
2260;DHT22;333;48.800;9.530;2023-05-07T15:20:41;18.50;99.60
2260;DHT22;333;48.800;9.530;2023-05-07T15:23:08;18.40;99.60
2260;DHT22;333;48.800;9.530;2023-05-07T15:25:37;18.40;99.60
2260;DHT22;333;48.800;9.530;2023-05-07T15:28:04;18.30;99.60
2260;DHT22;333;48.800;9.530;2023-05-07T15:30:31;18.40;99.60
2260;DHT22;333;48.800;9.530;2023-05-07T15:32:58;18.40;99.60
2260;DHT22;333;48.800;9.530;2023-05-07T15:35:26;18.30;99.60
2260;DHT22;333;48.800;9.530;2023-05-07T15:37:53;18.40;99.60
2260;DHT22;333;48.800;9.530;2023-05-07T15:40:21;18.40;99.60
2260;DHT22;333;48.800;9.530;2023-05-07T15:42:48;18.30;99.60
2260;DHT22;333;48.800;9.530;2023-05-07T15:45:15;18.00;99.60
2260;DHT22;333;48.800;9.530;2023-05-07T15:47:42;17.90;99.60
2260;DHT22;333;48.800;9.530;2023-05-07T15:50:09;17.70;99.60
2260;DHT22;333;48.800;9.530;2023-05-07T15:52:38;17.50;99.60
2260;DHT22;333;48.800;9.530;2023-05-07T15:55:07;17.30;99.60
2260;DHT22;333;48.800;9.530;2023-05-07T15:57:34;17.00;99.60
2260;DHT22;333;48.800;9.530;2023-05-07T16:00:02;16.90;99.60
2260;DHT22;333;48.800;9.530;2023-05-07T16:02:30;17.00;99.60
2260;DHT22;333;48.800;9.530;2023-05-07T16:04:57;16.80;99.60
2260;DHT22;333;48.800;9.530;2023-05-07T16:07:27;16.70;99.60
2260;DHT22;333;48.800;9.530;2023-05-07T16:09:56;16.60;99.60
2260;DHT22;333;48.800;9.530;2023-05-07T16:12:23;16.50;99.60
2260;DHT22;333;48.800;9.530;2023-05-07T16:14:52;16.50;99.60
2260;DHT22;333;48.800;9.530;2023-05-07T16:17:19;16.40;99.60
2260;DHT22;333;48.800;9.530;2023-05-07T16:19:46;16.30;99.60
2260;DHT22;333;48.800;9.530;2023-05-07T16:22:13;16.30;99.60
2260;DHT22;333;48.800;9.530;2023-05-07T16:24:40;16.30;99.60